• Join FlightAware (Why Join?)
  • Login
  • US Flag 
07:45AM EDT


 

Airport Tracker/Info


-or-


 

Live Flight TrackerFlight Track Log ✈ N728QS ✈ 14-May-2012 ✈ KFXE - CYQT

Flight Track Log - Related Links

Times and Time Zones

All times are in EDT time to prevent confusion due to time zone crossing. See the N728QS flight status page for this flight to view local times or setup timezone preferences in your user account.

Time Position Orientation Groundspeed Altitude Reporting Facility
EDT Latitude Longitude Course Direction KTS MPH feet Rate Location/Type
01:27PM 26.1978 -80.1564 75° East 193 222 600  Level Miami Center
01:27PM 26.2069 -80.1172 73° East 205 236 1,400 1,800 Climbing Miami Center
01:28PM 26.2183 -80.0758 343° North 213 245 3,000 2,460 Climbing Miami Center
01:29PM 26.2867 -80.0986 305° West 255 293 6,400 3,300 Climbing Miami Center
01:30PM 26.3292 -80.1669 328° Northwest 260 299 10,300 3,060 Climbing Miami Center
01:31PM 26.3950 -80.2128 341° North 288 331 12,600 2,520 Climbing Miami Center
01:32PM 26.5006 -80.2528 342° North 325 374 15,400 2,640 Climbing Miami Center
01:33PM 26.5894 -80.2856 341° North 372 428 17,900 2,580 Climbing Miami Center
01:34PM 26.7014 -80.3283 340° North 386 444 20,600 2,220 Climbing Miami Center
01:35PM 26.7983 -80.3686 341° North 394 453 22,400 1,860 Climbing Miami Center
01:36PM 26.9061 -80.4114 342° North 401 461 24,400 1,800 Climbing Miami Center
01:37PM 27.0178 -80.4519 340° North 411 473 26,100 1,620 Climbing Miami Center
01:38PM 27.1294 -80.4975 341° North 421 484 27,700 1,500 Climbing Miami Center
01:39PM 27.2453 -80.5431 342° North 427 491 29,200 1,440 Climbing Miami Center
01:40PM 27.3650 -80.5867 341° North 439 505 30,600 1,380 Climbing Miami Center
01:41PM 27.4831 -80.6328 341° North 445 512 32,000 1,260 Climbing Miami Center
01:42PM 27.6008 -80.6789 341° North 445 512 33,200 900 Climbing Miami Center
01:43PM 27.7164 -80.7247 341° North 440 506 33,900 600 Climbing Miami Center
01:44PM 27.8342 -80.7711 342° North 440 506 34,500 600 Climbing Miami Center
01:45PM 27.9642 -80.8203 340° North 445 512 35,200 600 Climbing Miami Center
01:46PM 28.0797 -80.8667 342° North 439 505 35,800 720 Climbing Miami Center
01:47PM 28.1997 -80.9108 340° North 444 511 36,700 600 Climbing Miami Center
01:48PM 28.3172 -80.9600 340° North 444 511 37,000 120 Climbing Miami Center
01:49PM 28.4389 -81.0092 340° North 444 511 37,000  Level Miami Center
01:50PM 28.5544 -81.0561 341° North 444 511 37,000  Level Miami Center
01:51PM 28.6719 -81.1031 346° North 444 511 37,000  Level Miami Center
01:52PM 28.7911 -81.1372 349° North 444 511 37,000  Level Jacksonville Center
01:53PM 28.9167 -81.1658 347° North 439 505 37,000  Level Jacksonville Center
01:54PM 29.0383 -81.1992 349° North 450 518 37,000  Level Jacksonville Center
01:55PM 29.1514 -81.2233 349° North 450 518 37,000  Level Jacksonville Center
01:56PM 29.2769 -81.2522 347° North 450 518 37,000  Level Jacksonville Center
01:57PM 29.4047 -81.2858 348° North 450 518 37,000  Level Jacksonville Center
01:58PM 29.5408 -81.3194 348° North 450 518 37,000  Level Jacksonville Center
01:59PM 29.6683 -81.3508 350° North 455 524 37,000 180 Level Jacksonville Center
02:00PM 29.7942 -81.3775 352° North 455 524 37,400 480 Climbing Jacksonville Center
02:01PM 29.9236 -81.3972 North 455 524 38,000 660 Climbing Jacksonville Center
02:02PM 30.0550 -81.3856 North 455 524 38,800 480 Climbing Jacksonville Center
02:03PM 30.1844 -81.3739 North 460 529 39,000 60 Climbing Jacksonville Center
02:04PM 30.3178 -81.3622 North 460 529 39,000  Level Jacksonville Center
02:05PM 30.4472 -81.3528 North 465 535 39,000  Level Jacksonville Center
02:06PM 30.5806 -81.3361 North 465 535 39,000  Level Jacksonville Center
02:07PM 30.7119 -81.3269 358° North 470 541 39,000 -60 Level Jacksonville Center
02:08PM 30.8394 -81.3319 343° North 463 533 38,900 -60 Descending Jacksonville Center
02:09PM 30.9569 -81.3736 349° North 443 510 38,900  Level Jacksonville Center
02:10PM 31.0847 -81.4031 350° North 448 516 39,000  Climbing Jacksonville Center
02:11PM 31.2103 -81.4278 North 447 514 39,000  Level Jacksonville Center
02:12PM 31.3394 -81.4208 North 463 533 39,000  Level Jacksonville Center
02:13PM 31.4667 -81.3969 10° North 467 537 39,000  Level Jacksonville Center
02:14PM 31.5853 -81.3731 11° North 473 544 39,000  Level Jacksonville Center
02:15PM 31.7289 -81.3392 North 473 544 39,000  Level Jacksonville Center
02:16PM 31.8603 -81.3197 North 467 537 39,000  Level Jacksonville Center
02:17PM 31.9792 -81.3056 North 467 537 39,000  Level Jacksonville Center
02:18PM 32.1106 -81.2861 North 472 543 39,000  Level Jacksonville Center
02:19PM 32.2439 -81.2714 North 477 549 39,000  Level Jacksonville Center
02:20PM 32.3753 -81.2544 North 477 549 39,000  Level Jacksonville Center
02:21PM 32.5189 -81.2369 North 482 555 39,000  Level Jacksonville Center
02:22PM 32.6525 -81.2319 North 471 542 39,000  Level Jacksonville Center
02:23PM 32.7692 -81.2225 14° North 466 536 39,000  Level Jacksonville Center
02:24PM 32.9003 -81.1831 North 466 536 39,000  Level Jacksonville Center
02:25PM 33.0297 -81.1806 355° North 466 536 39,000  Level Jacksonville Center
02:26PM 33.1633 -81.1953 355° North 466 536 39,000  Level Jacksonville Center
02:27PM 33.3056 -81.2100 356° North 466 536 39,000  Level Jacksonville Center
02:28PM 33.4392 -81.2200 355° North 466 536 39,000  Level Jacksonville Center
02:29PM 33.5750 -81.2347 356° North 477 549 39,000  Level Jacksonville Center
02:30PM 33.7089 -81.2472 355° North 483 556 39,000  Level Jacksonville Center
02:31PM 33.8281 -81.2600 355° North 477 549 39,000  Level Jacksonville Center
02:34PM 34.2019 -81.3011 355° North 479 551 39,000  Level Atlanta Center
02:35PM 34.3525 -81.3164 354° North 496 571 39,000  Level Atlanta Center
02:36PM 34.4867 -81.3347 355° North 488 562 39,000 240 Level Atlanta Center
02:37PM 34.6206 -81.3481 355° North 474 545 39,500 480 Climbing Atlanta Center
02:38PM 34.7397 -81.3619 353° North 474 545 40,000 240 Climbing Atlanta Center
02:39PM 34.8736 -81.3806 355° North 481 554 40,000  Level Atlanta Center
02:40PM 35.0200 -81.3961 355° North 487 560 40,000  Level Atlanta Center
02:41PM 35.1561 -81.4119 354° North 487 560 40,000  Level Atlanta Center
02:42PM 35.2900 -81.4281 355° North 487 560 40,000  Level Atlanta Center
02:43PM 35.4281 -81.4442 354° North 482 555 40,000  Level Atlanta Center
02:44PM 35.5639 -81.4603 356° North 488 562 40,000  Level Atlanta Center
02:45PM 35.6894 -81.4717 355° North 494 568 40,000  Level Atlanta Center
02:46PM 35.8253 -81.4878 356° North 494 568 40,000  Level Atlanta Center
02:47PM 35.9611 -81.4989 355° North 494 568 40,000  Level Atlanta Center
02:48PM 36.0992 -81.5153 354° North 494 568 40,000  Level Atlanta Center
02:49PM 36.2350 -81.5317 355° North 494 568 40,000  Level Atlanta Center
02:50PM 36.3856 -81.5475 356° North 489 563 40,000  Level Atlanta Center
02:51PM 36.5256 -81.5611 354° North 494 568 40,000  Level Atlanta Center
02:52PM 36.6592 -81.5778 354° North 494 568 40,000  Level Atlanta Center
02:54PM 36.8731 -81.6047 355° North 479 551 40,000  Level Indianapolis Center
02:55PM 37.0528 -81.6236 354° North 491 565 40,000  Level Indianapolis Center
02:56PM 37.1886 -81.6408 355° North 496 571 40,000  Level Indianapolis Center
02:57PM 37.3267 -81.6556 354° North 502 578 40,000  Level Indianapolis Center
02:58PM 37.4647 -81.6731 354° North 502 578 40,000  Level Indianapolis Center
02:59PM 37.6006 -81.6906 354° North 502 578 40,000  Level Indianapolis Center
03:00PM 37.7364 -81.7081 355° North 502 578 40,000  Level Indianapolis Center
03:01PM 37.8658 -81.7233 354° North 485 558 40,000  Level Indianapolis Center
03:02PM 38.0039 -81.7411 354° North 485 558 40,000  Level Indianapolis Center
03:03PM 38.1417 -81.7586 355° North 490 564 40,000  Level Indianapolis Center
03:04PM 38.2775 -81.7739 354° North 490 564 40,000  Level Indianapolis Center
03:05PM 38.4156 -81.7917 354° North 490 564 40,000  Level Indianapolis Center
03:06PM 38.5533 -81.8097 354° North 495 570 40,000  Level Indianapolis Center
03:07PM 38.6789 -81.8253 354° North 495 570 40,000  Level Indianapolis Center
03:08PM 38.8189 -81.8433 356° North 501 577 40,000  Level Indianapolis Center
03:09PM 38.9525 -81.8561 355° North 501 577 40,000  Level Indianapolis Center
03:10PM 39.0861 -81.8717 354° North 495 570 40,000  Level Indianapolis Center
03:11PM 39.2261 -81.8897 355° North 495 570 40,000  Level Indianapolis Center
03:12PM 39.3578 -81.9056 355° North 490 564 40,000  Level Indianapolis Center
03:13PM 39.4914 -81.9211 354° North 484 557 40,000  Level Indianapolis Center
03:14PM 39.6250 -81.9397 355° North 484 557 40,000  Level Indianapolis Center
03:15PM 39.7567 -81.9556 355° North 477 549 40,000  Level Indianapolis Center
03:16PM 39.8922 -81.9714 354° North 484 557 40,000  Level Indianapolis Center
03:18PM 40.1186 -82.0003 355° North 482 555 40,000  Level Cleveland Center
03:19PM 40.2561 -82.0167 354° North 482 555 40,000  Level Cleveland Center
03:20PM 40.3914 -82.0361 355° North 482 555 40,000  Level Cleveland Center
03:21PM 40.5289 -82.0528 354° North 493 567 40,000  Level Cleveland Center
03:22PM 40.6661 -82.0722 355° North 499 574 40,000  Level Cleveland Center
03:23PM 40.8036 -82.0892 354° North 499 574 40,000  Level Cleveland Center
03:24PM 40.9533 -82.1089 354° North 499 574 40,000  Level Cleveland Center
03:25PM 41.0906 -82.1286 355° North 499 574 40,000  Level Cleveland Center
03:26PM 41.2300 -82.1458 345° North 499 574 40,000  Level Cleveland Center
03:27PM 41.3608 -82.1933 345° North 499 574 40,000  Level Cleveland Center
03:28PM 41.4914 -82.2408 344° North 494 568 40,000  Level Cleveland Center
03:29PM 41.6117 -82.2883 344° North 482 555 40,000  Level Cleveland Center
03:30PM 41.7361 -82.3361 345° North 470 541 40,000  Level Cleveland Center
03:31PM 41.8667 -82.3844 343° North 478 550 40,000  Level Cleveland Center
03:32PM 41.9969 -82.4383 344° North 478 550 40,000  Level Cleveland Center
03:33PM 42.1233 -82.4869 344° North 478 550 40,000  Level Cleveland Center
03:34PM 42.2478 -82.5353 344° North 472 543 40,000  Level Cleveland Center
03:35PM 42.3886 -82.5903 342° North 472 543 40,000  Level Cleveland Center
03:36PM 42.5147 -82.6450 344° North 472 543 40,000  Level Cleveland Center
03:37PM 42.6389 -82.6944 344° North 472 543 40,000  Level Cleveland Center
03:38PM 42.7650 -82.7439 343° North 467 537 40,000  Level Cleveland Center
03:39PM 42.8911 -82.7964 345° North 467 537 40,000  Level Cleveland Center
03:40PM 43.0153 -82.8433 343° North 472 543 40,000  Level Cleveland Center
03:41PM 43.1414 -82.8964 344° North 472 543 40,000  Level Cleveland Center
03:42PM 43.2675 -82.9467 342° North 472 543 40,000  Level Cleveland Center
03:43PM 43.3914 -83.0031 344° North 467 537 40,000  Level Cleveland Center
03:44PM 43.5153 -83.0536 346° North 467 537 40,000  Level Cleveland Center
03:45PM 43.7000 -83.1167 345° North 470 541 40,000  Level Toronto Center
03:46PM 43.8333 -83.1667 343° North 470 541 40,000  Level Toronto Center
03:47PM 43.9500 -83.2167 338° Northwest 470 541 40,000  Level Toronto Center
03:48PM 44.0667 -83.2833 332° Northwest 470 541 40,000  Level Toronto Center
03:49PM 44.1464 -83.3436 317° Northwest 459 528 40,000  Level Minneapolis Center
03:50PM 44.2364 -83.4617 316° Northwest 451 519 40,000  Level Minneapolis Center
03:51PM 44.3292 -83.5853 320° Northwest 451 519 40,000  Level Minneapolis Center
03:52PM 44.4294 -83.7053 317° Northwest 464 534 40,000  Level Minneapolis Center
03:53PM 44.5214 -83.8239 318° Northwest 464 534 40,000  Level Minneapolis Center
03:54PM 44.6150 -83.9428 317° Northwest 464 534 40,000  Level Minneapolis Center
03:55PM 44.7067 -84.0622 317° Northwest 459 528 40,000  Level Minneapolis Center
03:56PM 44.8006 -84.1847 318° Northwest 459 528 40,000  Level Minneapolis Center
03:57PM 44.8917 -84.3022 318° Northwest 454 522 40,000  Level Minneapolis Center
03:58PM 44.9828 -84.4200 317° Northwest 454 522 40,000  Level Minneapolis Center
03:59PM 45.0714 -84.5356 318° Northwest 454 522 40,000  Level Minneapolis Center
04:00PM 45.1692 -84.6619 317° Northwest 449 517 40,000  Level Minneapolis Center
04:01PM 45.2578 -84.7811 317° Northwest 444 511 40,000  Level Minneapolis Center
04:02PM 45.3461 -84.8978 316° Northwest 444 511 40,000  Level Minneapolis Center
04:03PM 45.4325 -85.0183 317° Northwest 444 511 40,000  Level Minneapolis Center
04:04PM 45.5250 -85.1408 317° Northwest 449 517 40,000  Level Minneapolis Center
04:05PM 45.6153 -85.2614 316° Northwest 449 517 40,000  Level Minneapolis Center
04:06PM 45.7033 -85.3825 318° Northwest 449 517 40,000  Level Minneapolis Center
04:07PM 45.7933 -85.5008 316° Northwest 449 517 40,000  Level Minneapolis Center
04:08PM 45.8811 -85.6228 316° Northwest 449 517 40,000  Level Minneapolis Center
04:09PM 45.9711 -85.7478 316° Northwest 454 522 40,000  Level Minneapolis Center
04:10PM 46.0564 -85.8678 316° Northwest 449 517 40,000  Level Minneapolis Center
04:11PM 46.1436 -85.9881 316° Northwest 449 517 40,000  Level Minneapolis Center
04:12PM 46.2289 -86.1086 314° West 444 511 40,000  Level Minneapolis Center
04:13PM 46.3072 -86.2247 315° West 443 510 40,000  Level Minneapolis Center
04:14PM 46.3992 -86.3603 317° Northwest 443 510 40,000  Level Minneapolis Center
04:15PM 46.4767 -86.4650 317° Northwest 438 504 40,000 -540 Level Minneapolis Center
04:16PM 46.5722 -86.5950 316° Northwest 433 498 39,000 -1,200 Descending Minneapolis Center
04:17PM 46.6542 -86.7119 314° West 423 487 37,700 -1,440 Descending Minneapolis Center
04:18PM 46.7389 -86.8381 314° West 423 487 36,200 -1,500 Descending Minneapolis Center
04:19PM 46.8211 -86.9617 316° Northwest 429 494 34,700 -1,500 Descending Minneapolis Center
04:20PM 46.8914 -87.0628 316° Northwest 418 481 33,200 -1,800 Descending Minneapolis Center
04:21PM 46.9797 -87.1894 315° West 424 488 31,200 -2,040 Descending Minneapolis Center
04:22PM 47.0614 -87.3111 314° West 429 494 29,200 -2,100 Descending Minneapolis Center
04:23PM 47.1497 -87.4447 336° Northwest 422 486 27,000 -2,160 Descending Minneapolis Center
04:24PM 47.1833 -87.4667 310° West 420 483 25,900 -2,040 Descending Winnipeg Center
04:25PM 47.2500 -87.5833 313° West 420 483 23,900 -2,100 Descending Winnipeg Center
04:26PM 47.3333 -87.7167 310° West 410 472 21,800 -2,100 Descending Winnipeg Center
04:26PM 47.4000 -87.8333 302° West 410 472 20,400 -1,920 Descending Toronto Center
04:27PM 47.4500 -87.9500 322° Northwest 390 449 18,600 -2,040 Descending Toronto Center
04:28PM 47.5500 -88.0667 323° Northwest 370 426 16,400 -1,920 Descending Toronto Center
04:29PM 47.6022 -88.1242 310° West 371 427 15,200 -1,980 Descending Minneapolis Center
04:30PM 47.6167 -88.1500 321° Northwest 360 414 13,800 -2,340 Descending Winnipeg Center
04:31PM 47.7000 -88.2500 307° West 320 368 11,700 -1,800 Descending Winnipeg Center
04:32PM 47.7333 -88.3167 312° West 280 322 10,200 -1,560 Descending Winnipeg Center
04:33PM 47.7833 -88.4000 326° Northwest 260 299 8,600 -1,500 Descending Winnipeg Center
04:34PM 47.8500 -88.4667 318° Northwest 260 299 7,200 -1,500 Descending Winnipeg Center
04:35PM 47.9000 -88.5333 326° Northwest 260 299 5,600 -1,140 Descending Winnipeg Center
04:36PM 47.9667 -88.6000 342° North 260 299 5,000 -300 Descending Winnipeg Center
04:37PM 48.0333 -88.6333 342° North 270 311 5,000  Level Winnipeg Center
04:38PM 48.1000 -88.6667 333° Northwest 270 311 5,000  Level Winnipeg Center
04:39PM 48.1667 -88.7167 342° North 260 299 5,000 -420 Level Winnipeg Center
04:40PM 48.2333 -88.7500 326° Northwest 250 288 4,200 -540 Descending Winnipeg Center
04:41PM 48.2833 -88.8000 318° Northwest 220 253 4,000 -120 Descending Winnipeg Center
04:42PM 48.3333 -88.8667 291° West 210 242 4,000 -300 Level Winnipeg Center
04:43PM 48.3500 -88.9333 291° West 210 242 3,400 -960 Descending Winnipeg Center
04:44PM 48.3667 -89.0000 301° West 200 230 2,100 -780 Descending Winnipeg Center
04:45PM 48.4000 -89.0833 249° West 190 219 1,900 -180 Descending Winnipeg Center
04:46PM 48.3833 -89.1500 243° Southwest 170 196 1,800 -300 Descending Winnipeg Center
04:47PM 48.3667 -89.2000 249° West 150 173 1,400 -600 Descending Winnipeg Center
04:48PM 48.3500 -89.2667 270° West 140 161 700 -420 Descending Winnipeg Center
04:49PM 48.3500 -89.2833 270° West 70 81 600 -120 Descending Winnipeg Center